sensor_id;sensor_type;location;lat;lon;timestamp;temperature;humidity
20246;DHT22;10281;54.406;18.556;2024-01-11T00:00:46;1.90;99.90
20246;DHT22;10281;54.406;18.556;2024-01-11T00:03:12;2.00;99.90
20246;DHT22;10281;54.406;18.556;2024-01-11T00:05:39;2.10;99.90
20246;DHT22;10281;54.406;18.556;2024-01-11T00:08:06;2.00;99.90
20246;DHT22;10281;54.406;18.556;2024-01-11T00:10:33;2.00;99.90
20246;DHT22;10281;54.406;18.556;2024-01-11T00:12:59;2.10;99.90
20246;DHT22;10281;54.406;18.556;2024-01-11T00:15:26;2.00;99.90
20246;DHT22;10281;54.406;18.556;2024-01-11T00:17:52;2.10;99.90
20246;DHT22;10281;54.406;18.556;2024-01-11T00:20:19;2.00;99.90
20246;DHT22;10281;54.406;18.556;2024-01-11T00:22:46;2.00;99.90
20246;DHT22;10281;54.406;18.556;2024-01-11T00:25:12;2.10;99.90
20246;DHT22;10281;54.406;18.556;2024-01-11T00:27:39;2.10;99.90
20246;DHT22;10281;54.406;18.556;2024-01-11T00:30:06;2.10;99.90
20246;DHT22;10281;54.406;18.556;2024-01-11T00:32:33;2.10;99.90
20246;DHT22;10281;54.406;18.556;2024-01-11T00:35:00;2.10;99.90
20246;DHT22;10281;54.406;18.556;2024-01-11T00:37:26;2.20;99.90
20246;DHT22;10281;54.406;18.556;2024-01-11T00:39:53;2.10;99.90
20246;DHT22;10281;54.406;18.556;2024-01-11T00:42:19;2.10;99.90
20246;DHT22;10281;54.406;18.556;2024-01-11T00:44:46;2.20;99.90
20246;DHT22;10281;54.406;18.556;2024-01-11T00:47:13;2.20;99.90
20246;DHT22;10281;54.406;18.556;2024-01-11T00:49:39;2.20;99.90
20246;DHT22;10281;54.406;18.556;2024-01-11T00:52:06;2.20;99.90
20246;DHT22;10281;54.406;18.556;2024-01-11T00:54:32;2.20;99.90
20246;DHT22;10281;54.406;18.556;2024-01-11T00:56:59;2.20;99.90
20246;DHT22;10281;54.406;18.556;2024-01-11T00:59:26;2.20;99.90
20246;DHT22;10281;54.406;18.556;2024-01-11T01:01:52;2.30;99.90
20246;DHT22;10281;54.406;18.556;2024-01-11T01:04:19;2.20;99.90
20246;DHT22;10281;54.406;18.556;2024-01-11T01:06:45;2.20;99.90
20246;DHT22;10281;54.406;18.556;2024-01-11T01:09:12;2.20;99.90
20246;DHT22;10281;54.406;18.556;2024-01-11T01:11:39;2.30;99.90
20246;DHT22;10281;54.406;18.556;2024-01-11T01:14:06;2.30;99.90
20246;DHT22;10281;54.406;18.556;2024-01-11T01:16:32;2.30;99.90
20246;DHT22;10281;54.406;18.556;2024-01-11T01:18:59;2.30;99.90
20246;DHT22;10281;54.406;18.556;2024-01-11T01:21:26;2.30;99.90
20246;DHT22;10281;54.406;18.556;2024-01-11T01:23:52;2.30;99.90
20246;DHT22;10281;54.406;18.556;2024-01-11T01:26:19;2.40;99.90
20246;DHT22;10281;54.406;18.556;2024-01-11T01:28:46;2.40;99.90
20246;DHT22;10281;54.406;18.556;2024-01-11T01:31:12;2.40;99.90
20246;DHT22;10281;54.406;18.556;2024-01-11T01:33:40;2.40;99.90
20246;DHT22;10281;54.406;18.556;2024-01-11T01:36:13;2.40;99.90
20246;DHT22;10281;54.406;18.556;2024-01-11T01:38:40;2.40;99.90
20246;DHT22;10281;54.406;18.556;2024-01-11T01:41:06;2.40;99.90
20246;DHT22;10281;54.406;18.556;2024-01-11T01:43:33;2.40;99.90
20246;DHT22;10281;54.406;18.556;2024-01-11T01:46:00;2.40;99.90
20246;DHT22;10281;54.406;18.556;2024-01-11T01:48:27;2.40;99.90
20246;DHT22;10281;54.406;18.556;2024-01-11T01:50:55;2.40;99.90
20246;DHT22;10281;54.406;18.556;2024-01-11T01:53:23;2.40;99.90
20246;DHT22;10281;54.406;18.556;2024-01-11T01:55:52;2.40;99.90
20246;DHT22;10281;54.406;18.556;2024-01-11T01:58:19;2.40;99.90
20246;DHT22;10281;54.406;18.556;2024-01-11T02:00:48;2.40;99.90
20246;DHT22;10281;54.406;18.556;2024-01-11T02:03:15;2.40;99.90
20246;DHT22;10281;54.406;18.556;2024-01-11T02:05:42;2.40;99.90
20246;DHT22;10281;54.406;18.556;2024-01-11T02:08:12;2.40;99.90
20246;DHT22;10281;54.406;18.556;2024-01-11T02:10:40;2.40;99.90
20246;DHT22;10281;54.406;18.556;2024-01-11T02:13:06;2.50;99.90
20246;DHT22;10281;54.406;18.556;2024-01-11T02:15:34;2.40;99.90
20246;DHT22;10281;54.406;18.556;2024-01-11T02:18:01;2.40;99.90
20246;DHT22;10281;54.406;18.556;2024-01-11T02:20:27;2.30;99.90
20246;DHT22;10281;54.406;18.556;2024-01-11T02:22:58;2.40;99.90
20246;DHT22;10281;54.406;18.556;2024-01-11T02:25:25;2.30;99.90
20246;DHT22;10281;54.406;18.556;2024-01-11T02:27:51;2.30;99.90
20246;DHT22;10281;54.406;18.556;2024-01-11T02:30:18;2.40;99.90
20246;DHT22;10281;54.406;18.556;2024-01-11T02:32:46;2.40;99.90
20246;DHT22;10281;54.406;18.556;2024-01-11T02:35:15;2.40;99.90
20246;DHT22;10281;54.406;18.556;2024-01-11T02:37:42;2.30;99.90
20246;DHT22;10281;54.406;18.556;2024-01-11T02:40:09;2.30;99.90
20246;DHT22;10281;54.406;18.556;2024-01-11T02:42:36;2.30;99.90
20246;DHT22;10281;54.406;18.556;2024-01-11T02:45:03;2.30;99.90
20246;DHT22;10281;54.406;18.556;2024-01-11T02:47:30;2.30;99.90
20246;DHT22;10281;54.406;18.556;2024-01-11T02:49:57;2.30;99.90
20246;DHT22;10281;54.406;18.556;2024-01-11T02:52:24;2.30;99.90
20246;DHT22;10281;54.406;18.556;2024-01-11T02:54:50;2.30;99.90
20246;DHT22;10281;54.406;18.556;2024-01-11T02:57:17;2.20;99.90
20246;DHT22;10281;54.406;18.556;2024-01-11T02:59:43;2.30;99.90
20246;DHT22;10281;54.406;18.556;2024-01-11T03:02:10;2.20;99.90
20246;DHT22;10281;54.406;18.556;2024-01-11T03:04:37;2.20;99.90
20246;DHT22;10281;54.406;18.556;2024-01-11T03:07:03;2.20;99.90
20246;DHT22;10281;54.406;18.556;2024-01-11T03:09:30;2.20;99.90
20246;DHT22;10281;54.406;18.556;2024-01-11T03:11:56;2.20;99.90
20246;DHT22;10281;54.406;18.556;2024-01-11T03:14:23;2.20;99.90
20246;DHT22;10281;54.406;18.556;2024-01-11T03:16:50;2.20;99.90
20246;DHT22;10281;54.406;18.556;2024-01-11T03:19:16;2.20;99.90
20246;DHT22;10281;54.406;18.556;2024-01-11T03:21:44;2.20;99.90
20246;DHT22;10281;54.406;18.556;2024-01-11T03:24:13;2.20;99.90
20246;DHT22;10281;54.406;18.556;2024-01-11T03:26:41;2.20;99.90
20246;DHT22;10281;54.406;18.556;2024-01-11T03:29:08;2.20;99.90
20246;DHT22;10281;54.406;18.556;2024-01-11T03:31:34;2.20;99.90
20246;DHT22;10281;54.406;18.556;2024-01-11T03:34:01;2.20;99.90
20246;DHT22;10281;54.406;18.556;2024-01-11T03:36:27;2.20;99.90
20246;DHT22;10281;54.406;18.556;2024-01-11T03:38:54;2.20;99.90
20246;DHT22;10281;54.406;18.556;2024-01-11T03:41:20;2.20;99.90
20246;DHT22;10281;54.406;18.556;2024-01-11T03:43:47;2.20;99.90
20246;DHT22;10281;54.406;18.556;2024-01-11T03:46:14;2.20;99.90
20246;DHT22;10281;54.406;18.556;2024-01-11T03:48:40;2.10;99.90
20246;DHT22;10281;54.406;18.556;2024-01-11T03:51:07;2.10;99.90
20246;DHT22;10281;54.406;18.556;2024-01-11T03:53:35;2.10;99.90
20246;DHT22;10281;54.406;18.556;2024-01-11T03:56:03;2.20;99.90
20246;DHT22;10281;54.406;18.556;2024-01-11T03:58:29;2.20;99.90
20246;DHT22;10281;54.406;18.556;2024-01-11T04:00:56;2.10;99.90
20246;DHT22;10281;54.406;18.556;2024-01-11T04:03:23;2.10;99.90
20246;DHT22;10281;54.406;18.556;2024-01-11T04:05:49;2.10;99.90
20246;DHT22;10281;54.406;18.556;2024-01-11T04:08:16;2.10;99.90
20246;DHT22;10281;54.406;18.556;2024-01-11T04:10:42;2.10;99.90
20246;DHT22;10281;54.406;18.556;2024-01-11T04:13:09;2.10;99.90
20246;DHT22;10281;54.406;18.556;2024-01-11T04:15:35;2.20;99.90
20246;DHT22;10281;54.406;18.556;2024-01-11T04:18:02;2.20;99.90
20246;DHT22;10281;54.406;18.556;2024-01-11T04:20:29;2.20;99.90
20246;DHT22;10281;54.406;18.556;2024-01-11T04:22:55;2.20;99.90
20246;DHT22;10281;54.406;18.556;2024-01-11T04:25:22;2.20;99.90
20246;DHT22;10281;54.406;18.556;2024-01-11T04:27:49;2.20;99.90
20246;DHT22;10281;54.406;18.556;2024-01-11T04:30:15;2.20;99.90
20246;DHT22;10281;54.406;18.556;2024-01-11T04:32:42;2.20;99.90
20246;DHT22;10281;54.406;18.556;2024-01-11T04:35:08;2.20;99.90
20246;DHT22;10281;54.406;18.556;2024-01-11T04:37:36;2.20;99.90
20246;DHT22;10281;54.406;18.556;2024-01-11T04:40:03;2.30;99.90
20246;DHT22;10281;54.406;18.556;2024-01-11T04:42:30;2.30;99.90
20246;DHT22;10281;54.406;18.556;2024-01-11T04:44:56;2.30;99.90
20246;DHT22;10281;54.406;18.556;2024-01-11T04:47:23;2.30;99.90
20246;DHT22;10281;54.406;18.556;2024-01-11T04:49:49;2.30;99.90
20246;DHT22;10281;54.406;18.556;2024-01-11T04:52:16;2.30;99.90
20246;DHT22;10281;54.406;18.556;2024-01-11T04:54:43;2.30;99.90
20246;DHT22;10281;54.406;18.556;2024-01-11T04:57:09;2.30;99.90
20246;DHT22;10281;54.406;18.556;2024-01-11T04:59:36;2.30;99.90
20246;DHT22;10281;54.406;18.556;2024-01-11T05:02:02;2.30;99.90
20246;DHT22;10281;54.406;18.556;2024-01-11T05:04:29;2.40;99.90
20246;DHT22;10281;54.406;18.556;2024-01-11T05:06:56;2.40;99.90
20246;DHT22;10281;54.406;18.556;2024-01-11T05:09:23;2.40;99.90
20246;DHT22;10281;54.406;18.556;2024-01-11T05:11:49;2.40;99.90
20246;DHT22;10281;54.406;18.556;2024-01-11T05:14:16;2.40;99.90
20246;DHT22;10281;54.406;18.556;2024-01-11T05:16:42;2.30;99.90
20246;DHT22;10281;54.406;18.556;2024-01-11T05:19:09;2.40;99.90
20246;DHT22;10281;54.406;18.556;2024-01-11T05:21:36;2.40;99.90
20246;DHT22;10281;54.406;18.556;2024-01-11T05:24:02;2.40;99.90
20246;DHT22;10281;54.406;18.556;2024-01-11T05:26:29;2.40;99.90
20246;DHT22;10281;54.406;18.556;2024-01-11T05:28:56;2.40;99.90
20246;DHT22;10281;54.406;18.556;2024-01-11T05:31:22;2.50;99.90
20246;DHT22;10281;54.406;18.556;2024-01-11T05:33:49;2.50;99.90
20246;DHT22;10281;54.406;18.556;2024-01-11T05:36:15;2.50;99.90
20246;DHT22;10281;54.406;18.556;2024-01-11T05:38:42;2.60;99.90
20246;DHT22;10281;54.406;18.556;2024-01-11T05:41:09;2.60;99.90
20246;DHT22;10281;54.406;18.556;2024-01-11T05:43:37;2.50;99.90
20246;DHT22;10281;54.406;18.556;2024-01-11T05:46:05;2.50;99.90
20246;DHT22;10281;54.406;18.556;2024-01-11T05:48:33;2.50;99.90
20246;DHT22;10281;54.406;18.556;2024-01-11T05:50:59;2.50;99.90
20246;DHT22;10281;54.406;18.556;2024-01-11T05:53:26;2.50;99.90
20246;DHT22;10281;54.406;18.556;2024-01-11T05:55:53;2.50;99.90
20246;DHT22;10281;54.406;18.556;2024-01-11T05:58:20;2.50;99.90
20246;DHT22;10281;54.406;18.556;2024-01-11T06:00:47;2.60;99.90
20246;DHT22;10281;54.406;18.556;2024-01-11T06:03:13;2.60;99.90
20246;DHT22;10281;54.406;18.556;2024-01-11T06:05:41;2.60;99.90
20246;DHT22;10281;54.406;18.556;2024-01-11T06:08:07;2.60;99.90
20246;DHT22;10281;54.406;18.556;2024-01-11T06:10:34;2.60;99.90
20246;DHT22;10281;54.406;18.556;2024-01-11T06:13:01;2.50;99.90
20246;DHT22;10281;54.406;18.556;2024-01-11T06:15:27;2.50;99.90
20246;DHT22;10281;54.406;18.556;2024-01-11T06:17:54;2.70;99.90
20246;DHT22;10281;54.406;18.556;2024-01-11T06:20:20;2.60;99.90
20246;DHT22;10281;54.406;18.556;2024-01-11T06:22:47;2.60;99.90
20246;DHT22;10281;54.406;18.556;2024-01-11T06:25:14;2.60;99.90
20246;DHT22;10281;54.406;18.556;2024-01-11T06:27:42;2.60;99.90
20246;DHT22;10281;54.406;18.556;2024-01-11T06:30:10;2.50;99.90
20246;DHT22;10281;54.406;18.556;2024-01-11T06:32:36;2.50;99.90
20246;DHT22;10281;54.406;18.556;2024-01-11T06:35:05;2.50;99.90
20246;DHT22;10281;54.406;18.556;2024-01-11T06:37:31;2.60;99.90
20246;DHT22;10281;54.406;18.556;2024-01-11T06:39:58;2.60;99.90
20246;DHT22;10281;54.406;18.556;2024-01-11T06:42:25;2.60;99.90
20246;DHT22;10281;54.406;18.556;2024-01-11T06:44:51;2.60;99.90
20246;DHT22;10281;54.406;18.556;2024-01-11T06:47:18;2.60;99.90
20246;DHT22;10281;54.406;18.556;2024-01-11T06:49:45;2.60;99.90
20246;DHT22;10281;54.406;18.556;2024-01-11T06:52:11;2.60;99.90
20246;DHT22;10281;54.406;18.556;2024-01-11T06:54:39;2.60;99.90
20246;DHT22;10281;54.406;18.556;2024-01-11T06:57:06;2.50;99.90
20246;DHT22;10281;54.406;18.556;2024-01-11T06:59:33;2.60;99.90
20246;DHT22;10281;54.406;18.556;2024-01-11T07:02:00;2.60;99.90
20246;DHT22;10281;54.406;18.556;2024-01-11T07:04:26;2.50;99.90
20246;DHT22;10281;54.406;18.556;2024-01-11T07:06:53;2.60;99.90
20246;DHT22;10281;54.406;18.556;2024-01-11T07:09:19;2.60;99.90
20246;DHT22;10281;54.406;18.556;2024-01-11T07:11:46;2.50;99.90
20246;DHT22;10281;54.406;18.556;2024-01-11T07:14:12;2.50;99.90
20246;DHT22;10281;54.406;18.556;2024-01-11T07:16:39;2.50;99.90
20246;DHT22;10281;54.406;18.556;2024-01-11T07:19:06;2.50;99.90
20246;DHT22;10281;54.406;18.556;2024-01-11T07:21:32;2.50;99.90
20246;DHT22;10281;54.406;18.556;2024-01-11T07:23:59;2.50;99.90
20246;DHT22;10281;54.406;18.556;2024-01-11T07:26:26;2.60;99.90
20246;DHT22;10281;54.406;18.556;2024-01-11T07:28:53;2.60;99.90
20246;DHT22;10281;54.406;18.556;2024-01-11T07:31:21;2.50;99.90
20246;DHT22;10281;54.406;18.556;2024-01-11T07:33:48;2.60;99.90
20246;DHT22;10281;54.406;18.556;2024-01-11T07:36:14;2.60;99.90
20246;DHT22;10281;54.406;18.556;2024-01-11T07:38:41;2.60;99.90
20246;DHT22;10281;54.406;18.556;2024-01-11T07:41:08;2.50;99.90
20246;DHT22;10281;54.406;18.556;2024-01-11T07:43:34;2.50;99.90
20246;DHT22;10281;54.406;18.556;2024-01-11T07:46:01;2.60;99.90
20246;DHT22;10281;54.406;18.556;2024-01-11T07:48:29;2.60;99.90
20246;DHT22;10281;54.406;18.556;2024-01-11T07:50:56;2.60;99.90
20246;DHT22;10281;54.406;18.556;2024-01-11T07:53:22;2.60;99.90
20246;DHT22;10281;54.406;18.556;2024-01-11T07:55:49;2.60;99.90
20246;DHT22;10281;54.406;18.556;2024-01-11T07:58:17;2.60;99.90
20246;DHT22;10281;54.406;18.556;2024-01-11T08:00:43;2.60;99.90
20246;DHT22;10281;54.406;18.556;2024-01-11T08:03:11;2.60;99.90
20246;DHT22;10281;54.406;18.556;2024-01-11T08:05:37;2.70;99.90
20246;DHT22;10281;54.406;18.556;2024-01-11T08:08:04;2.70;99.90
20246;DHT22;10281;54.406;18.556;2024-01-11T08:10:31;2.70;99.90
20246;DHT22;10281;54.406;18.556;2024-01-11T08:12:57;2.70;99.90
20246;DHT22;10281;54.406;18.556;2024-01-11T08:15:25;2.70;99.90
20246;DHT22;10281;54.406;18.556;2024-01-11T08:17:53;2.70;99.90
20246;DHT22;10281;54.406;18.556;2024-01-11T08:20:20;2.80;99.90
20246;DHT22;10281;54.406;18.556;2024-01-11T08:22:46;2.80;99.90
20246;DHT22;10281;54.406;18.556;2024-01-11T08:25:13;2.80;99.90
20246;DHT22;10281;54.406;18.556;2024-01-11T08:27:40;2.90;99.90
20246;DHT22;10281;54.406;18.556;2024-01-11T08:30:07;2.90;99.90
20246;DHT22;10281;54.406;18.556;2024-01-11T08:32:34;3.00;99.90
20246;DHT22;10281;54.406;18.556;2024-01-11T08:35:05;3.00;99.90
20246;DHT22;10281;54.406;18.556;2024-01-11T08:37:34;3.00;99.90
20246;DHT22;10281;54.406;18.556;2024-01-11T08:40:01;3.10;99.90
20246;DHT22;10281;54.406;18.556;2024-01-11T08:42:30;3.10;99.90
20246;DHT22;10281;54.406;18.556;2024-01-11T08:44:57;3.10;99.90
20246;DHT22;10281;54.406;18.556;2024-01-11T08:47:23;3.10;99.90
20246;DHT22;10281;54.406;18.556;2024-01-11T08:49:50;3.10;99.90
20246;DHT22;10281;54.406;18.556;2024-01-11T08:52:17;3.10;99.90
20246;DHT22;10281;54.406;18.556;2024-01-11T08:54:43;3.10;99.90
20246;DHT22;10281;54.406;18.556;2024-01-11T08:57:10;3.10;99.90
20246;DHT22;10281;54.406;18.556;2024-01-11T08:59:36;3.10;99.90
20246;DHT22;10281;54.406;18.556;2024-01-11T09:02:03;3.10;99.90
20246;DHT22;10281;54.406;18.556;2024-01-11T09:04:30;3.00;99.90
20246;DHT22;10281;54.406;18.556;2024-01-11T09:06:57;3.10;99.90
20246;DHT22;10281;54.406;18.556;2024-01-11T09:09:24;3.10;99.90
20246;DHT22;10281;54.406;18.556;2024-01-11T09:11:50;3.10;99.90
20246;DHT22;10281;54.406;18.556;2024-01-11T09:14:17;3.10;99.90
20246;DHT22;10281;54.406;18.556;2024-01-11T09:16:44;3.10;99.90
20246;DHT22;10281;54.406;18.556;2024-01-11T09:19:13;3.20;99.90
20246;DHT22;10281;54.406;18.556;2024-01-11T09:21:40;3.20;99.90
20246;DHT22;10281;54.406;18.556;2024-01-11T09:24:08;3.20;99.90
20246;DHT22;10281;54.406;18.556;2024-01-11T09:26:34;3.20;99.90
20246;DHT22;10281;54.406;18.556;2024-01-11T09:29:02;3.20;99.90
20246;DHT22;10281;54.406;18.556;2024-01-11T09:31:29;3.20;99.90
20246;DHT22;10281;54.406;18.556;2024-01-11T09:33:55;3.30;99.90
20246;DHT22;10281;54.406;18.556;2024-01-11T09:36:23;3.30;99.90
20246;DHT22;10281;54.406;18.556;2024-01-11T09:38:49;3.30;99.90
20246;DHT22;10281;54.406;18.556;2024-01-11T09:41:16;3.40;99.90
20246;DHT22;10281;54.406;18.556;2024-01-11T09:43:45;3.40;99.90
20246;DHT22;10281;54.406;18.556;2024-01-11T09:46:13;3.40;99.90
20246;DHT22;10281;54.406;18.556;2024-01-11T09:48:40;3.40;99.90
20246;DHT22;10281;54.406;18.556;2024-01-11T09:51:10;3.40;99.90
20246;DHT22;10281;54.406;18.556;2024-01-11T09:53:38;3.50;99.90
20246;DHT22;10281;54.406;18.556;2024-01-11T09:56:07;3.60;99.90
20246;DHT22;10281;54.406;18.556;2024-01-11T09:58:35;3.60;99.90
20246;DHT22;10281;54.406;18.556;2024-01-11T10:01:03;3.70;99.90
20246;DHT22;10281;54.406;18.556;2024-01-11T10:03:33;3.70;99.90
20246;DHT22;10281;54.406;18.556;2024-01-11T10:06:00;3.70;99.90
20246;DHT22;10281;54.406;18.556;2024-01-11T10:08:29;3.80;99.90
20246;DHT22;10281;54.406;18.556;2024-01-11T10:10:56;3.80;99.90
20246;DHT22;10281;54.406;18.556;2024-01-11T10:13:27;3.80;99.90
20246;DHT22;10281;54.406;18.556;2024-01-11T10:16:06;3.90;99.90
20246;DHT22;10281;54.406;18.556;2024-01-11T10:18:34;3.90;99.90
20246;DHT22;10281;54.406;18.556;2024-01-11T10:21:01;4.00;99.90
20246;DHT22;10281;54.406;18.556;2024-01-11T10:23:28;4.00;99.90
20246;DHT22;10281;54.406;18.556;2024-01-11T10:25:56;4.10;99.90
20246;DHT22;10281;54.406;18.556;2024-01-11T10:28:27;4.10;99.90
20246;DHT22;10281;54.406;18.556;2024-01-11T10:30:54;4.10;99.90
20246;DHT22;10281;54.406;18.556;2024-01-11T10:33:22;4.10;99.90
20246;DHT22;10281;54.406;18.556;2024-01-11T10:35:49;4.10;99.90
20246;DHT22;10281;54.406;18.556;2024-01-11T10:38:17;4.10;99.90
20246;DHT22;10281;54.406;18.556;2024-01-11T10:40:44;4.10;99.90
20246;DHT22;10281;54.406;18.556;2024-01-11T10:43:12;4.20;99.90
20246;DHT22;10281;54.406;18.556;2024-01-11T10:45:42;4.20;99.90
20246;DHT22;10281;54.406;18.556;2024-01-11T10:48:14;4.20;99.90
20246;DHT22;10281;54.406;18.556;2024-01-11T10:50:44;4.20;99.90
20246;DHT22;10281;54.406;18.556;2024-01-11T10:53:25;4.20;99.90
20246;DHT22;10281;54.406;18.556;2024-01-11T10:55:50;4.30;99.90
20246;DHT22;10281;54.406;18.556;2024-01-11T10:58:18;4.30;99.90
20246;DHT22;10281;54.406;18.556;2024-01-11T11:00:47;4.30;99.90
20246;DHT22;10281;54.406;18.556;2024-01-11T11:03:16;4.30;99.90
20246;DHT22;10281;54.406;18.556;2024-01-11T11:05:44;4.20;99.90
20246;DHT22;10281;54.406;18.556;2024-01-11T11:08:12;4.20;99.90
20246;DHT22;10281;54.406;18.556;2024-01-11T11:10:40;4.20;99.90
20246;DHT22;10281;54.406;18.556;2024-01-11T11:13:09;4.20;99.90
20246;DHT22;10281;54.406;18.556;2024-01-11T11:15:36;4.20;99.90
20246;DHT22;10281;54.406;18.556;2024-01-11T11:18:03;4.20;99.90
20246;DHT22;10281;54.406;18.556;2024-01-11T11:20:32;4.20;99.90
20246;DHT22;10281;54.406;18.556;2024-01-11T11:23:04;4.20;99.90
20246;DHT22;10281;54.406;18.556;2024-01-11T11:25:32;4.20;99.90
20246;DHT22;10281;54.406;18.556;2024-01-11T11:27:59;4.30;99.90
20246;DHT22;10281;54.406;18.556;2024-01-11T11:30:28;4.30;99.90
20246;DHT22;10281;54.406;18.556;2024-01-11T11:32:55;4.30;99.90
20246;DHT22;10281;54.406;18.556;2024-01-11T11:35:24;4.30;99.90
20246;DHT22;10281;54.406;18.556;2024-01-11T11:37:55;4.20;99.90
20246;DHT22;10281;54.406;18.556;2024-01-11T11:40:33;4.20;99.90
20246;DHT22;10281;54.406;18.556;2024-01-11T11:43:02;4.20;99.90
20246;DHT22;10281;54.406;18.556;2024-01-11T11:45:31;4.20;99.90
20246;DHT22;10281;54.406;18.556;2024-01-11T11:47:58;4.10;99.90
20246;DHT22;10281;54.406;18.556;2024-01-11T11:50:24;4.20;99.90
20246;DHT22;10281;54.406;18.556;2024-01-11T11:52:55;4.20;99.90
20246;DHT22;10281;54.406;18.556;2024-01-11T11:55:23;4.20;99.90
20246;DHT22;10281;54.406;18.556;2024-01-11T11:57:52;4.20;99.90
20246;DHT22;10281;54.406;18.556;2024-01-11T12:00:20;4.20;99.90
20246;DHT22;10281;54.406;18.556;2024-01-11T12:02:48;4.10;99.90
20246;DHT22;10281;54.406;18.556;2024-01-11T12:05:16;4.10;99.90
20246;DHT22;10281;54.406;18.556;2024-01-11T12:07:44;4.20;99.90
20246;DHT22;10281;54.406;18.556;2024-01-11T12:10:12;4.10;99.90
20246;DHT22;10281;54.406;18.556;2024-01-11T12:12:39;4.20;99.90
20246;DHT22;10281;54.406;18.556;2024-01-11T12:15:07;4.20;99.90
20246;DHT22;10281;54.406;18.556;2024-01-11T12:17:34;4.20;99.90
20246;DHT22;10281;54.406;18.556;2024-01-11T12:20:00;4.20;99.90
20246;DHT22;10281;54.406;18.556;2024-01-11T12:22:27;4.20;99.90
20246;DHT22;10281;54.406;18.556;2024-01-11T12:24:54;4.20;99.90
20246;DHT22;10281;54.406;18.556;2024-01-11T12:27:22;4.10;99.90
20246;DHT22;10281;54.406;18.556;2024-01-11T12:29:48;4.10;99.90
20246;DHT22;10281;54.406;18.556;2024-01-11T12:32:15;4.10;99.90
20246;DHT22;10281;54.406;18.556;2024-01-11T12:34:44;4.10;99.90
20246;DHT22;10281;54.406;18.556;2024-01-11T12:37:11;4.10;99.90
20246;DHT22;10281;54.406;18.556;2024-01-11T12:39:38;4.20;99.90
20246;DHT22;10281;54.406;18.556;2024-01-11T12:42:05;4.20;99.90
20246;DHT22;10281;54.406;18.556;2024-01-11T12:44:33;4.20;99.90
20246;DHT22;10281;54.406;18.556;2024-01-11T12:47:01;4.30;99.90
20246;DHT22;10281;54.406;18.556;2024-01-11T12:49:28;4.20;99.90
20246;DHT22;10281;54.406;18.556;2024-01-11T12:51:55;4.30;99.90
20246;DHT22;10281;54.406;18.556;2024-01-11T12:54:21;4.30;99.90
20246;DHT22;10281;54.406;18.556;2024-01-11T12:56:49;4.30;99.90
20246;DHT22;10281;54.406;18.556;2024-01-11T12:59:16;4.30;99.90
20246;DHT22;10281;54.406;18.556;2024-01-11T13:01:42;4.40;99.90
20246;DHT22;10281;54.406;18.556;2024-01-11T13:04:10;4.40;99.90
20246;DHT22;10281;54.406;18.556;2024-01-11T13:06:37;4.40;99.90
20246;DHT22;10281;54.406;18.556;2024-01-11T13:09:04;4.40;99.90
20246;DHT22;10281;54.406;18.556;2024-01-11T13:11:31;4.40;99.90
20246;DHT22;10281;54.406;18.556;2024-01-11T13:13:58;4.40;99.90
20246;DHT22;10281;54.406;18.556;2024-01-11T13:16:27;4.40;99.90
20246;DHT22;10281;54.406;18.556;2024-01-11T13:18:54;4.40;99.90
20246;DHT22;10281;54.406;18.556;2024-01-11T13:21:21;4.40;99.90
20246;DHT22;10281;54.406;18.556;2024-01-11T13:23:48;4.40;99.90
20246;DHT22;10281;54.406;18.556;2024-01-11T13:26:14;4.30;99.90
20246;DHT22;10281;54.406;18.556;2024-01-11T13:28:41;4.30;99.90
20246;DHT22;10281;54.406;18.556;2024-01-11T13:31:07;4.30;99.90
20246;DHT22;10281;54.406;18.556;2024-01-11T13:33:36;4.30;99.90
20246;DHT22;10281;54.406;18.556;2024-01-11T13:36:03;4.30;99.90
20246;DHT22;10281;54.406;18.556;2024-01-11T13:38:30;4.30;99.90
20246;DHT22;10281;54.406;18.556;2024-01-11T13:40:56;4.30;99.90
20246;DHT22;10281;54.406;18.556;2024-01-11T13:43:23;4.30;99.90
20246;DHT22;10281;54.406;18.556;2024-01-11T13:45:50;4.40;99.90
20246;DHT22;10281;54.406;18.556;2024-01-11T13:48:17;4.30;99.90
20246;DHT22;10281;54.406;18.556;2024-01-11T13:50:44;4.40;99.90
20246;DHT22;10281;54.406;18.556;2024-01-11T13:53:10;4.20;99.90
20246;DHT22;10281;54.406;18.556;2024-01-11T13:55:37;4.30;99.90
20246;DHT22;10281;54.406;18.556;2024-01-11T13:58:04;4.20;99.90
20246;DHT22;10281;54.406;18.556;2024-01-11T14:00:31;4.20;99.90
20246;DHT22;10281;54.406;18.556;2024-01-11T14:02:58;4.30;99.90
20246;DHT22;10281;54.406;18.556;2024-01-11T14:05:24;4.30;99.90
20246;DHT22;10281;54.406;18.556;2024-01-11T14:07:51;4.30;99.90
20246;DHT22;10281;54.406;18.556;2024-01-11T14:10:20;4.30;99.90
20246;DHT22;10281;54.406;18.556;2024-01-11T14:12:46;4.20;99.90
20246;DHT22;10281;54.406;18.556;2024-01-11T14:15:13;4.30;99.90
20246;DHT22;10281;54.406;18.556;2024-01-11T14:17:40;4.30;99.90
20246;DHT22;10281;54.406;18.556;2024-01-11T14:20:07;4.30;99.90
20246;DHT22;10281;54.406;18.556;2024-01-11T14:22:36;4.30;99.90
20246;DHT22;10281;54.406;18.556;2024-01-11T14:25:03;4.20;99.90
20246;DHT22;10281;54.406;18.556;2024-01-11T14:27:30;4.20;99.90
20246;DHT22;10281;54.406;18.556;2024-01-11T14:29:57;4.20;99.90
20246;DHT22;10281;54.406;18.556;2024-01-11T14:32:24;4.20;99.90
20246;DHT22;10281;54.406;18.556;2024-01-11T14:34:53;4.10;99.90
20246;DHT22;10281;54.406;18.556;2024-01-11T14:37:19;4.10;99.90
20246;DHT22;10281;54.406;18.556;2024-01-11T14:39:46;4.10;99.90
20246;DHT22;10281;54.406;18.556;2024-01-11T14:42:12;4.10;99.90
20246;DHT22;10281;54.406;18.556;2024-01-11T14:44:39;4.10;99.90
20246;DHT22;10281;54.406;18.556;2024-01-11T14:47:06;4.10;99.90
20246;DHT22;10281;54.406;18.556;2024-01-11T14:49:33;4.10;99.90
20246;DHT22;10281;54.406;18.556;2024-01-11T14:51:59;4.10;99.90
20246;DHT22;10281;54.406;18.556;2024-01-11T14:54:26;4.00;99.90
20246;DHT22;10281;54.406;18.556;2024-01-11T14:56:53;4.00;99.90
20246;DHT22;10281;54.406;18.556;2024-01-11T14:59:20;3.90;99.90
20246;DHT22;10281;54.406;18.556;2024-01-11T15:01:47;3.90;99.90
20246;DHT22;10281;54.406;18.556;2024-01-11T15:04:13;3.80;99.90
20246;DHT22;10281;54.406;18.556;2024-01-11T15:06:40;3.80;99.90
20246;DHT22;10281;54.406;18.556;2024-01-11T15:09:07;3.80;99.90
20246;DHT22;10281;54.406;18.556;2024-01-11T15:11:35;3.80;99.90
20246;DHT22;10281;54.406;18.556;2024-01-11T15:14:02;3.80;99.90
20246;DHT22;10281;54.406;18.556;2024-01-11T15:16:31;3.80;99.90
20246;DHT22;10281;54.406;18.556;2024-01-11T15:18:58;3.90;99.90
20246;DHT22;10281;54.406;18.556;2024-01-11T15:21:24;3.90;99.90
20246;DHT22;10281;54.406;18.556;2024-01-11T15:23:51;3.80;99.90
20246;DHT22;10281;54.406;18.556;2024-01-11T15:26:17;3.70;99.90
20246;DHT22;10281;54.406;18.556;2024-01-11T15:28:44;3.80;99.90